Time;durP1;ratioP1;P1;durP2;ratioP2;P2;SDS_P1;SDS_P2;PMS_P1;PMS_P2;Temp;Humidity;BMP_temperature;BMP_pressure;BME280_temperature;BME280_humidity;BME280_pressure;Samples;Min_cycle;Max_cycle;Signal;HPM_P1;HPM_P2
2022/11/13 00:01:40;;;;;;;20.15;13.90;;;6.50;99.90;;;;;;5055102;28;20067;-62
2022/11/13 00:04:05;;;;;;;20.58;14.85;;;6.60;99.90;;;;;;5053741;28;20130;-61
2022/11/13 00:06:31;;;;;;;19.20;14.90;;;6.50;99.90;;;;;;5054975;28;20446;-61
2022/11/13 00:08:56;;;;;;;19.52;15.00;;;6.50;99.90;;;;;;5055256;28;20044;-62
2022/11/13 00:11:22;;;;;;;21.60;14.90;;;6.40;99.90;;;;;;5054752;28;20072;-60
2022/11/13 00:13:48;;;;;;;19.30;14.18;;;6.50;99.90;;;;;;5055166;28;20037;-61
2022/11/13 00:16:19;;;;;;;20.02;15.23;;;6.40;99.90;;;;;;5054754;28;20048;-61
2022/11/13 00:18:46;;;;;;;20.92;15.00;;;6.60;99.90;;;;;;5055084;28;20045;-60
2022/11/13 00:21:30;;;;;;;21.52;15.48;;;6.60;99.90;;;;;;5065781;28;20040;-61
2022/11/13 00:23:56;;;;;;;25.15;16.92;;;6.50;99.90;;;;;;5074770;28;20052;-61
2022/11/13 00:26:24;;;;;;;22.58;15.88;;;6.50;99.90;;;;;;5074677;28;20044;-61
2022/11/13 00:29:00;;;;;;;22.88;17.30;;;6.70;99.90;;;;;;5074457;28;20080;-61
2022/11/13 00:31:27;;;;;;;24.42;17.17;;;6.60;99.90;;;;;;5074366;28;20106;-61
2022/11/13 00:33:53;;;;;;;28.58;18.52;;;6.70;99.90;;;;;;5074424;28;20119;-61
2022/11/13 00:36:24;;;;;;;25.77;18.35;;;6.80;99.90;;;;;;5073269;28;20112;-61
2022/11/13 00:38:50;;;;;;;27.27;19.30;;;6.80;99.90;;;;;;5074522;28;20032;-62
2022/11/13 00:41:16;;;;;;;24.48;18.92;;;6.80;99.90;;;;;;5074358;28;20051;-61
2022/11/13 00:43:42;;;;;;;25.45;19.25;;;7.00;99.90;;;;;;5074376;28;20388;-61
2022/11/13 00:46:08;;;;;;;26.13;18.73;;;6.90;99.90;;;;;;5074207;28;20036;-61
2022/11/13 00:48:34;;;;;;;27.17;18.95;;;6.90;99.90;;;;;;5074171;28;20047;-61
2022/11/13 00:51:01;;;;;;;26.38;19.00;;;7.00;99.90;;;;;;5073210;28;20074;-61
2022/11/13 00:53:27;;;;;;;26.75;17.80;;;6.80;99.90;;;;;;5074243;28;20071;-61
2022/11/13 00:55:52;;;;;;;24.95;18.80;;;7.00;99.90;;;;;;5073202;28;20484;-61
2022/11/13 00:58:18;;;;;;;25.65;19.58;;;6.90;99.90;;;;;;5074053;28;20032;-61
2022/11/13 01:00:45;;;;;;;26.65;18.58;;;6.90;99.90;;;;;;5072708;28;20051;-62
2022/11/13 01:03:12;;;;;;;26.17;18.55;;;7.00;99.90;;;;;;5073959;28;20097;-61
2022/11/13 01:05:39;;;;;;;26.63;19.08;;;7.00;99.90;;;;;;5074300;28;20341;-61
2022/11/13 01:08:05;;;;;;;23.35;18.55;;;6.90;99.90;;;;;;5074225;28;20401;-61
2022/11/13 01:10:33;;;;;;;25.48;20.08;;;7.10;99.90;;;;;;5072999;28;20049;-61
2022/11/13 01:12:58;;;;;;;27.50;21.15;;;7.10;99.90;;;;;;5073747;28;20135;-61
2022/11/13 01:15:24;;;;;;;24.08;20.17;;;7.00;99.90;;;;;;5073908;28;20075;-60
2022/11/13 01:17:50;;;;;;;29.27;21.23;;;7.00;99.90;;;;;;5073782;28;20040;-61
2022/11/13 01:20:17;;;;;;;26.40;20.13;;;7.00;99.90;;;;;;5073822;28;20045;-61
2022/11/13 01:22:42;;;;;;;26.40;20.00;;;7.00;99.90;;;;;;5073804;28;20076;-61
2022/11/13 01:25:08;;;;;;;26.42;19.80;;;7.00;99.90;;;;;;5073516;28;20128;-61
2022/11/13 01:27:37;;;;;;;26.73;18.88;;;7.10;99.90;;;;;;5055660;28;20076;-61
2022/11/13 01:30:04;;;;;;;26.13;20.35;;;7.10;99.90;;;;;;5073487;28;20141;-61
2022/11/13 01:32:30;;;;;;;26.15;19.20;;;7.10;99.90;;;;;;5072365;28;20088;-62
2022/11/13 01:34:55;;;;;;;29.67;18.63;;;7.10;99.90;;;;;;5073484;28;20129;-61
2022/11/13 01:37:21;;;;;;;25.08;18.02;;;7.20;99.90;;;;;;5073269;28;20136;-61
2022/11/13 01:39:47;;;;;;;28.42;18.48;;;7.20;99.90;;;;;;5073142;28;20047;-61
2022/11/13 01:42:12;;;;;;;27.02;18.45;;;7.20;99.90;;;;;;5073125;28;20044;-61
2022/11/13 01:44:45;;;;;;;24.40;17.42;;;7.30;99.90;;;;;;5073255;28;20047;-61
2022/11/13 01:47:11;;;;;;;26.77;19.38;;;7.30;99.90;;;;;;5073460;28;20044;-62
2022/11/13 01:49:40;;;;;;;26.20;18.67;;;7.30;99.90;;;;;;5071746;28;20369;-61
2022/11/13 01:52:30;;;;;;;26.30;19.60;;;7.30;99.90;;;;;;5071822;28;20069;-61
2022/11/13 01:55:00;;;;;;;23.35;17.60;;;7.40;99.90;;;;;;5072408;28;20145;-61
2022/11/13 01:57:25;;;;;;;23.55;18.17;;;7.30;99.90;;;;;;5072870;28;20080;-61
2022/11/13 01:59:57;;;;;;;26.38;19.23;;;7.50;99.90;;;;;;5071463;28;20151;-61
2022/11/13 02:02:23;;;;;;;25.08;18.08;;;7.40;99.90;;;;;;5072937;28;20032;-61
2022/11/13 02:04:49;;;;;;;26.13;18.63;;;7.50;99.90;;;;;;5072809;28;20434;-61
2022/11/13 02:07:18;;;;;;;24.00;17.98;;;7.40;99.90;;;;;;5055030;28;20385;-61
2022/11/13 02:09:49;;;;;;;27.05;18.55;;;7.40;99.90;;;;;;5072674;28;20045;-61
2022/11/13 02:12:25;;;;;;;40.28;30.42;;;7.30;99.90;;;;;;5072322;28;20102;-61
2022/11/13 02:14:53;;;;;;;37.53;28.80;;;7.40;99.90;;;;;;5072217;28;20408;-60
2022/11/13 02:17:51;;;;;;;38.70;29.83;;;7.40;99.90;;;;;;5072400;28;20028;-61
2022/11/13 02:20:41;;;;;;;37.83;29.63;;;7.30;99.90;;;;;;5063402;28;20493;-61
2022/11/13 02:23:42;;;;;;;37.53;28.67;;;7.40;99.90;;;;;;5072420;28;20043;-61
2022/11/13 02:26:09;;;;;;;35.80;27.10;;;7.20;99.90;;;;;;5072759;28;20051;-61
2022/11/13 02:28:35;;;;;;;31.17;25.15;;;7.20;99.90;;;;;;5072579;28;20396;-61
2022/11/13 02:31:09;;;;;;;31.15;23.17;;;7.30;99.90;;;;;;5072343;28;20044;-61
2022/11/13 02:33:35;;;;;;;29.60;22.58;;;7.30;99.90;;;;;;5072289;28;20125;-61
2022/11/13 02:36:02;;;;;;;26.55;19.25;;;7.30;99.90;;;;;;5072292;28;20494;-61
2022/11/13 02:38:28;;;;;;;24.48;18.73;;;7.30;99.90;;;;;;5072357;28;20044;-60
2022/11/13 02:40:54;;;;;;;23.40;18.60;;;7.00;99.90;;;;;;5072260;28;20032;-61
2022/11/13 02:43:19;;;;;;;24.27;17.77;;;7.00;99.90;;;;;;5072344;28;20602;-61
2022/11/13 02:45:45;;;;;;;22.67;17.52;;;7.10;99.90;;;;;;5071830;28;20071;-62
2022/11/13 02:48:11;;;;;;;23.75;18.42;;;7.00;99.90;;;;;;5072279;28;20051;-61
2022/11/13 02:50:37;;;;;;;25.65;19.13;;;7.20;99.90;;;;;;5072004;28;20393;-61
2022/11/13 02:53:03;;;;;;;24.55;17.98;;;7.20;99.90;;;;;;5072601;28;20119;-61
2022/11/13 02:55:29;;;;;;;23.55;17.95;;;7.00;99.90;;;;;;5071123;28;20043;-61
2022/11/13 02:57:54;;;;;;;23.55;18.38;;;7.10;99.90;;;;;;5072257;28;20460;-60
2022/11/13 03:00:20;;;;;;;23.63;17.67;;;7.10;99.90;;;;;;5070747;28;20254;-60
2022/11/13 03:02:46;;;;;;;22.38;17.88;;;7.00;99.90;;;;;;5071998;28;20055;-61
2022/11/13 03:05:11;;;;;;;23.95;18.02;;;7.20;99.90;;;;;;5072026;28;20536;-61
2022/11/13 03:07:37;;;;;;;24.25;17.23;;;7.10;99.90;;;;;;5071937;28;20044;-61
2022/11/13 03:10:03;;;;;;;21.08;16.45;;;7.10;99.90;;;;;;5070803;28;20388;-62
2022/11/13 03:12:29;;;;;;;22.90;17.33;;;7.20;99.90;;;;;;5071670;28;20056;-61
2022/11/13 03:14:54;;;;;;;22.27;18.25;;;7.10;99.90;;;;;;5071872;28;20114;-62
2022/11/13 03:17:20;;;;;;;23.00;17.52;;;7.10;99.90;;;;;;5072124;28;20123;-62
2022/11/13 03:19:45;;;;;;;24.75;18.23;;;7.20;99.90;;;;;;5071889;28;20055;-61
2022/11/13 03:22:11;;;;;;;25.52;17.77;;;7.20;99.90;;;;;;5071698;28;20123;-61
2022/11/13 03:24:37;;;;;;;24.75;17.88;;;7.20;99.90;;;;;;5072012;28;20067;-62
2022/11/13 03:27:02;;;;;;;22.73;17.23;;;7.10;99.90;;;;;;5073364;28;20036;-61
2022/11/13 03:29:28;;;;;;;23.90;18.08;;;7.00;99.90;;;;;;5074816;28;20131;-61
2022/11/13 03:31:54;;;;;;;24.38;18.38;;;7.20;99.90;;;;;;5075747;28;20036;-61
2022/11/13 03:34:19;;;;;;;23.63;17.35;;;7.10;99.90;;;;;;5075910;28;20044;-59
2022/11/13 03:36:45;;;;;;;24.00;17.58;;;7.30;99.90;;;;;;5075785;28;20047;-61
2022/11/13 03:39:10;;;;;;;22.00;17.25;;;7.10;99.90;;;;;;5075523;28;20032;-61
2022/11/13 03:41:36;;;;;;;25.33;18.00;;;7.20;99.90;;;;;;5075498;28;20051;-60
2022/11/13 03:44:02;;;;;;;25.30;18.85;;;7.10;99.90;;;;;;5075475;28;20039;-62
2022/11/13 03:46:27;;;;;;;24.75;18.73;;;7.30;99.90;;;;;;5075458;28;20051;-60
2022/11/13 03:48:53;;;;;;;24.92;17.33;;;7.10;99.90;;;;;;5071365;28;20041;-62
2022/11/13 03:51:19;;;;;;;24.77;18.77;;;7.30;99.90;;;;;;5064016;28;20480;-61
2022/11/13 03:53:44;;;;;;;23.58;17.42;;;7.20;99.90;;;;;;5063164;28;20400;-61
2022/11/13 03:56:10;;;;;;;22.17;17.33;;;7.20;99.90;;;;;;5075394;28;20385;-62
2022/11/13 03:58:36;;;;;;;21.83;17.65;;;7.30;99.90;;;;;;5061362;28;20045;-62
2022/11/13 04:01:01;;;;;;;22.45;17.10;;;7.20;99.90;;;;;;5055320;28;20048;-62
2022/11/13 04:03:27;;;;;;;26.13;17.02;;;7.30;99.90;;;;;;5055290;28;20049;-62
2022/11/13 04:05:53;;;;;;;26.38;18.80;;;7.20;99.90;;;;;;5058767;28;20033;-61
2022/11/13 04:08:18;;;;;;;26.85;19.20;;;7.30;99.90;;;;;;5075423;28;20132;-61
2022/11/13 04:10:45;;;;;;;27.85;19.30;;;7.20;99.90;;;;;;5075038;28;20044;-61
2022/11/13 04:13:11;;;;;;;27.30;19.33;;;7.30;99.90;;;;;;5075776;28;20048;-61
2022/11/13 04:15:37;;;;;;;27.02;19.80;;;7.40;99.90;;;;;;5074352;28;20040;-61
2022/11/13 04:18:03;;;;;;;27.15;18.80;;;7.30;99.90;;;;;;5069649;28;20041;-62
2022/11/13 04:20:29;;;;;;;24.35;19.65;;;7.10;99.90;;;;;;5063695;28;20041;-61
2022/11/13 04:22:57;;;;;;;26.83;19.10;;;7.20;99.90;;;;;;5072345;28;20037;-61
2022/11/13 04:25:24;;;;;;;27.40;19.33;;;7.20;99.90;;;;;;5054987;28;20041;-61
2022/11/13 04:27:51;;;;;;;24.92;19.08;;;7.20;99.90;;;;;;5036880;28;20048;-61
2022/11/13 04:30:17;;;;;;;25.65;17.83;;;7.30;99.90;;;;;;5054673;28;20405;-61
2022/11/13 04:32:43;;;;;;;24.50;17.95;;;7.20;99.90;;;;;;5054787;28;20041;-61
2022/11/13 04:35:09;;;;;;;22.30;17.33;;;7.30;99.90;;;;;;5054448;28;20041;-61
2022/11/13 04:37:35;;;;;;;21.98;17.08;;;7.20;99.90;;;;;;5053582;28;20072;-61
2022/11/13 04:40:01;;;;;;;23.83;17.17;;;7.20;99.90;;;;;;5053736;28;20138;-61
2022/11/13 04:45:10;;;;;;;24.40;18.15;;;7.10;99.90;;;;;;5063604;28;20037;-61
2022/11/13 04:47:36;;;;;;;26.08;17.90;;;7.10;99.90;;;;;;5054241;28;20037;-61
2022/11/13 04:50:03;;;;;;;24.63;18.20;;;7.10;99.90;;;;;;5054468;28;20056;-62
2022/11/13 04:52:29;;;;;;;22.23;16.60;;;7.10;99.90;;;;;;5054362;28;20439;-62
2022/11/13 04:54:56;;;;;;;24.10;16.48;;;7.20;99.90;;;;;;5054375;28;20045;-61
2022/11/13 04:57:22;;;;;;;21.50;16.75;;;7.10;99.90;;;;;;5060048;28;20025;-61
2022/11/13 04:59:47;;;;;;;21.48;16.38;;;7.00;99.90;;;;;;5072847;28;20041;-61
2022/11/13 05:02:13;;;;;;;23.55;17.13;;;7.10;99.90;;;;;;5074189;28;20051;-61
2022/11/13 05:04:39;;;;;;;22.80;16.92;;;7.20;99.90;;;;;;5074130;28;20068;-61
2022/11/13 05:07:04;;;;;;;22.85;16.08;;;7.20;99.90;;;;;;5074318;28;20051;-61
2022/11/13 05:09:30;;;;;;;21.02;16.77;;;7.30;99.90;;;;;;5074151;28;20048;-61
2022/11/13 05:11:55;;;;;;;22.38;18.02;;;7.20;99.90;;;;;;5073545;28;20071;-61
2022/11/13 05:14:21;;;;;;;23.25;17.50;;;7.30;99.90;;;;;;5073924;28;20050;-60
2022/11/13 05:16:48;;;;;;;22.42;16.00;;;7.30;99.90;;;;;;5073977;28;20182;-61
2022/11/13 05:19:15;;;;;;;24.02;17.23;;;7.40;99.90;;;;;;5073846;28;20040;-60
2022/11/13 05:21:40;;;;;;;22.13;16.83;;;7.40;99.90;;;;;;5073881;28;20470;-60
2022/11/13 05:24:08;;;;;;;22.17;16.88;;;7.30;99.90;;;;;;5072484;28;20067;-61
2022/11/13 05:26:36;;;;;;;21.92;17.35;;;7.30;99.90;;;;;;5073629;28;20045;-60
2022/11/13 05:29:03;;;;;;;22.38;16.17;;;7.30;99.90;;;;;;5073985;28;20441;-60
2022/11/13 05:31:28;;;;;;;21.10;16.30;;;7.20;99.90;;;;;;5073732;28;20051;-61
2022/11/13 05:33:54;;;;;;;19.98;16.02;;;7.30;99.90;;;;;;5073746;28;20044;-61
2022/11/13 05:36:21;;;;;;;23.50;16.00;;;7.10;99.90;;;;;;5073330;28;20396;-61
2022/11/13 05:38:47;;;;;;;22.67;16.92;;;7.30;99.90;;;;;;5073660;28;20041;-61
2022/11/13 05:41:17;;;;;;;21.00;15.90;;;7.20;99.90;;;;;;5073261;28;20047;-60
2022/11/13 05:43:44;;;;;;;20.40;15.15;;;7.20;99.90;;;;;;5073488;28;20036;-62
2022/11/13 05:46:13;;;;;;;21.45;16.40;;;7.20;99.90;;;;;;5073431;28;20048;-61
2022/11/13 05:48:40;;;;;;;20.15;16.10;;;7.00;99.90;;;;;;5073432;28;20045;-61
2022/11/13 05:51:08;;;;;;;20.65;15.93;;;7.20;99.90;;;;;;5072232;28;20099;-61
2022/11/13 05:53:35;;;;;;;21.98;14.85;;;7.10;99.90;;;;;;5069857;28;20104;-60
2022/11/13 05:56:13;;;;;;;20.40;14.73;;;6.90;99.90;;;;;;5061977;28;20083;-60
2022/11/13 05:58:39;;;;;;;22.08;15.55;;;6.90;99.90;;;;;;5065433;28;20033;-62
2022/11/13 06:01:11;;;;;;;19.83;15.45;;;6.90;99.90;;;;;;5073009;28;20093;-61
2022/11/13 06:03:37;;;;;;;22.77;16.02;;;6.90;99.90;;;;;;5073102;28;20040;-60
2022/11/13 06:06:04;;;;;;;20.58;16.25;;;6.90;99.90;;;;;;5072834;28;20123;-61
2022/11/13 06:08:30;;;;;;;24.20;18.02;;;6.90;99.90;;;;;;5072791;28;20093;-61
2022/11/13 06:11:00;;;;;;;21.67;15.45;;;6.90;99.90;;;;;;5072510;28;20049;-61
2022/11/13 06:13:26;;;;;;;20.40;15.02;;;7.00;99.90;;;;;;5072580;28;20040;-61
2022/11/13 06:15:52;;;;;;;20.38;15.05;;;6.90;99.90;;;;;;5072581;28;20056;-61
2022/11/13 06:18:24;;;;;;;21.25;13.40;;;6.80;99.90;;;;;;5072643;28;20083;-62
2022/11/13 06:20:50;;;;;;;17.83;13.88;;;6.90;99.90;;;;;;5072376;28;20441;-61
2022/11/13 06:23:16;;;;;;;20.23;14.02;;;6.80;99.90;;;;;;5072584;28;20043;-61
2022/11/13 06:25:41;;;;;;;20.60;14.95;;;6.80;99.90;;;;;;5073484;28;20063;-61
2022/11/13 06:28:07;;;;;;;20.98;13.95;;;6.80;99.90;;;;;;5073282;28;20075;-61
2022/11/13 06:30:33;;;;;;;18.40;13.88;;;6.80;99.90;;;;;;5073023;28;20044;-62
2022/11/13 06:32:58;;;;;;;19.80;13.95;;;6.70;99.90;;;;;;5072227;28;20044;-62
2022/11/13 06:35:24;;;;;;;19.85;14.48;;;6.60;99.90;;;;;;5072778;28;20455;-62
2022/11/13 06:37:50;;;;;;;17.42;12.98;;;6.60;99.90;;;;;;5072658;28;20426;-61
2022/11/13 06:40:15;;;;;;;23.50;13.82;;;6.70;99.90;;;;;;5071272;28;20043;-61
2022/11/13 06:42:41;;;;;;;20.70;13.45;;;6.50;99.90;;;;;;5054122;28;20503;-61
2022/11/13 06:45:07;;;;;;;18.83;12.95;;;6.60;99.90;;;;;;5072071;28;20044;-61
2022/11/13 06:47:33;;;;;;;18.33;13.27;;;6.50;99.90;;;;;;5071994;28;20115;-61
2022/11/13 06:49:58;;;;;;;19.98;13.63;;;6.60;99.90;;;;;;5072276;28;20127;-61
2022/11/13 06:52:24;;;;;;;19.05;13.82;;;6.60;99.90;;;;;;5071789;28;20123;-61
2022/11/13 06:54:50;;;;;;;17.13;12.55;;;6.50;99.90;;;;;;5072019;28;20064;-61
2022/11/13 06:57:15;;;;;;;19.08;13.30;;;6.50;99.90;;;;;;5067127;28;20041;-61
2022/11/13 06:59:42;;;;;;;19.00;13.13;;;6.50;99.90;;;;;;5052247;28;20413;-61
2022/11/13 07:02:10;;;;;;;18.73;13.32;;;6.40;99.90;;;;;;5051649;28;20628;-61
2022/11/13 07:04:36;;;;;;;16.83;12.13;;;6.40;99.90;;;;;;5052017;28;20048;-62
2022/11/13 07:07:03;;;;;;;18.00;12.70;;;6.50;99.90;;;;;;5034213;28;20057;-60
2022/11/13 07:09:29;;;;;;;18.30;13.10;;;6.30;99.90;;;;;;5052277;28;20056;-61
2022/11/13 07:11:56;;;;;;;19.50;12.43;;;6.40;99.90;;;;;;5051741;28;20076;-61
2022/11/13 07:14:22;;;;;;;19.77;12.65;;;6.40;99.90;;;;;;5052351;28;20142;-61
2022/11/13 07:16:47;;;;;;;19.52;12.70;;;6.30;99.90;;;;;;5052052;28;20041;-62
2022/11/13 07:19:13;;;;;;;17.35;12.70;;;6.40;99.90;;;;;;5052431;28;20033;-61
2022/11/13 07:21:39;;;;;;;18.88;12.60;;;6.40;99.90;;;;;;5051825;28;20045;-61
2022/11/13 07:24:05;;;;;;;18.00;12.55;;;6.30;99.90;;;;;;5052013;28;20455;-61
2022/11/13 07:26:31;;;;;;;20.90;12.55;;;6.40;99.90;;;;;;5052191;28;20067;-61
2022/11/13 07:28:56;;;;;;;16.52;11.52;;;6.40;99.90;;;;;;5051951;28;20041;-61
2022/11/13 07:31:22;;;;;;;20.60;12.50;;;6.50;99.90;;;;;;5051897;28;20374;-62
2022/11/13 07:33:49;;;;;;;21.83;12.65;;;6.50;99.90;;;;;;5050950;28;20048;-61
2022/11/13 07:36:14;;;;;;;20.08;12.85;;;6.50;99.90;;;;;;5050983;28;20428;-62
2022/11/13 07:38:40;;;;;;;21.15;13.82;;;6.60;99.90;;;;;;5049746;28;20047;-62
2022/11/13 07:41:06;;;;;;;17.27;12.73;;;6.40;99.90;;;;;;5050779;28;20476;-61
2022/11/13 07:43:32;;;;;;;18.40;12.38;;;6.50;99.90;;;;;;5049631;28;20056;-60
2022/11/13 07:45:58;;;;;;;17.80;12.73;;;6.50;99.90;;;;;;5050957;28;20037;-60
2022/11/13 07:48:26;;;;;;;18.70;13.00;;;6.60;99.90;;;;;;5050973;28;20033;-61
2022/11/13 07:50:52;;;;;;;18.88;13.77;;;6.60;99.90;;;;;;5050118;28;20127;-61
2022/11/13 07:53:19;;;;;;;18.63;12.68;;;6.50;99.90;;;;;;5050386;28;20120;-61
2022/11/13 07:55:45;;;;;;;20.48;13.07;;;6.60;99.90;;;;;;5049103;28;20041;-61
2022/11/13 07:58:12;;;;;;;17.67;12.02;;;6.80;99.90;;;;;;5045249;28;20123;-61
2022/11/13 08:00:38;;;;;;;21.83;13.70;;;6.80;99.90;;;;;;5069301;28;20044;-61
2022/11/13 08:03:13;;;;;;;17.90;12.48;;;6.90;99.90;;;;;;5070362;28;20040;-61
2022/11/13 08:05:40;;;;;;;19.55;13.05;;;6.90;99.90;;;;;;5070488;28;20056;-61
2022/11/13 08:08:06;;;;;;;19.85;14.07;;;7.00;99.90;;;;;;5070419;28;20048;-62
2022/11/13 08:10:32;;;;;;;20.00;13.07;;;6.90;99.90;;;;;;5070155;28;20037;-62
2022/11/13 08:13:00;;;;;;;19.38;12.90;;;7.00;99.90;;;;;;5070339;28;20075;-60
2022/11/13 08:15:26;;;;;;;16.55;12.52;;;7.10;99.90;;;;;;5072338;28;20456;-61
2022/11/13 08:17:56;;;;;;;17.55;12.55;;;7.10;99.90;;;;;;5063970;28;20048;-61
2022/11/13 08:20:23;;;;;;;17.73;12.38;;;7.10;99.90;;;;;;5058277;28;20044;-61
2022/11/13 08:22:49;;;;;;;18.05;12.73;;;7.30;99.90;;;;;;5063070;28;20033;-61
2022/11/13 08:25:15;;;;;;;18.73;12.85;;;7.30;99.90;;;;;;5072827;28;20392;-61
2022/11/13 08:27:40;;;;;;;16.58;12.32;;;7.40;99.90;;;;;;5073992;28;20044;-61
2022/11/13 08:30:07;;;;;;;17.10;12.75;;;7.40;99.90;;;;;;5072566;28;20180;-61
2022/11/13 08:32:32;;;;;;;17.58;12.35;;;7.40;99.90;;;;;;5073718;28;20423;-61
2022/11/13 08:34:58;;;;;;;20.88;12.32;;;7.60;99.90;;;;;;5071504;28;20044;-61
2022/11/13 08:37:24;;;;;;;18.80;13.57;;;7.50;99.90;;;;;;5063858;28;20551;-60
2022/11/13 08:39:49;;;;;;;17.23;12.52;;;7.60;99.90;;;;;;5065062;28;20584;-61
2022/11/13 08:42:15;;;;;;;18.67;13.10;;;7.80;99.90;;;;;;5073560;28;20106;-61
2022/11/13 08:44:41;;;;;;;18.13;12.90;;;7.80;99.90;;;;;;5071848;28;20518;-61
2022/11/13 08:47:07;;;;;;;20.45;13.50;;;7.70;99.90;;;;;;5073179;28;20086;-62
2022/11/13 08:49:32;;;;;;;21.17;14.70;;;7.90;99.90;;;;;;5073108;28;20590;-60
2022/11/13 08:51:58;;;;;;;18.90;12.95;;;7.90;99.90;;;;;;5073135;28;20071;-62
2022/11/13 08:54:24;;;;;;;20.63;15.23;;;8.00;99.90;;;;;;5072378;28;20040;-61
2022/11/13 08:56:50;;;;;;;20.52;14.25;;;8.10;99.90;;;;;;5071542;28;20048;-63
2022/11/13 08:59:15;;;;;;;20.23;13.20;;;8.20;99.90;;;;;;5063965;28;20754;-64
2022/11/13 09:01:41;;;;;;;16.35;12.98;;;8.20;99.90;;;;;;5061657;28;20036;-61
2022/11/13 09:04:07;;;;;;;18.45;13.52;;;8.30;99.90;;;;;;5063632;28;20047;-61
2022/11/13 09:06:33;;;;;;;17.15;12.88;;;8.40;99.90;;;;;;5060510;28;20516;-61
2022/11/13 09:08:59;;;;;;;17.10;12.68;;;8.50;99.90;;;;;;5062425;28;20032;-61
2022/11/13 09:11:27;;;;;;;17.42;12.23;;;8.60;99.90;;;;;;5062028;28;20071;-61
2022/11/13 09:13:53;;;;;;;16.75;12.50;;;8.70;99.90;;;;;;5061657;28;20029;-61
2022/11/13 09:16:20;;;;;;;16.08;11.98;;;8.70;99.90;;;;;;5069751;28;20103;-61
2022/11/13 09:18:52;;;;;;;16.77;12.93;;;8.80;99.90;;;;;;5072350;28;20104;-61
2022/11/13 09:21:18;;;;;;;18.67;12.18;;;8.80;99.90;;;;;;5072357;28;20037;-62
2022/11/13 09:23:44;;;;;;;16.58;12.05;;;9.00;99.90;;;;;;5072746;28;20421;-61
2022/11/13 09:26:10;;;;;;;16.35;11.52;;;8.90;99.90;;;;;;5072446;28;20187;-61
2022/11/13 09:28:35;;;;;;;16.67;12.60;;;9.10;99.90;;;;;;5071363;28;20131;-61
2022/11/13 09:31:05;;;;;;;17.25;12.45;;;9.10;99.90;;;;;;5072131;28;20131;-62
2022/11/13 09:33:31;;;;;;;18.73;12.15;;;9.10;99.90;;;;;;5071963;28;20110;-61
2022/11/13 09:35:57;;;;;;;16.63;12.50;;;9.20;99.90;;;;;;5071878;28;20040;-61
2022/11/13 09:38:23;;;;;;;16.67;12.38;;;9.20;99.90;;;;;;5072185;28;20059;-61
2022/11/13 09:41:03;;;;;;;16.85;12.10;;;9.40;99.90;;;;;;5071160;28;20115;-61
2022/11/13 09:43:55;;;;;;;15.50;11.95;;;9.50;99.90;;;;;;5072297;28;20032;-61
2022/11/13 09:46:42;;;;;;;15.93;11.60;;;9.40;99.90;;;;;;5071122;28;20047;-62
2022/11/13 09:49:08;;;;;;;16.08;11.80;;;9.50;99.90;;;;;;5072544;28;20388;-62
2022/11/13 09:51:36;;;;;;;16.23;11.73;;;9.50;99.90;;;;;;5072317;28;20123;-61
2022/11/13 09:54:05;;;;;;;15.85;11.73;;;9.70;99.90;;;;;;5072126;28;20194;-61
2022/11/13 09:56:39;;;;;;;15.23;11.18;;;9.80;99.90;;;;;;5070834;28;20040;-61
2022/11/13 09:59:26;;;;;;;16.40;12.40;;;9.70;99.90;;;;;;5052286;28;20601;-61
2022/11/13 10:02:07;;;;;;;15.45;11.40;;;9.90;99.90;;;;;;5067710;28;20048;-61
2022/11/13 10:04:57;;;;;;;16.13;11.60;;;9.90;99.90;;;;;;5052130;28;20060;-62
2022/11/13 10:07:36;;;;;;;14.90;11.63;;;9.90;99.90;;;;;;5067652;28;20059;-61
2022/11/13 10:10:20;;;;;;;17.85;12.00;;;10.00;99.90;;;;;;5052023;28;20072;-61
2022/11/13 10:12:50;;;;;;;16.67;11.82;;;10.00;99.90;;;;;;5057118;28;20048;-61
2022/11/13 10:15:16;;;;;;;18.20;11.93;;;10.00;99.90;;;;;;5061389;28;20098;-62
2022/11/13 10:18:10;;;;;;;17.40;12.15;;;10.10;99.90;;;;;;5061734;28;20033;-61
2022/11/13 10:20:39;;;;;;;14.32;11.02;;;10.10;99.90;;;;;;5058286;28;20049;-61
2022/11/13 10:23:07;;;;;;;13.80;11.13;;;10.20;99.90;;;;;;5067197;28;20041;-62
2022/11/13 10:25:36;;;;;;;13.65;10.27;;;10.30;99.90;;;;;;5071562;28;20123;-62
2022/11/13 10:28:22;;;;;;;15.73;10.10;;;10.30;99.90;;;;;;5070630;28;20048;-61
2022/11/13 10:30:48;;;;;;;15.50;10.43;;;10.50;99.90;;;;;;5071611;28;20044;-61
2022/11/13 10:33:17;;;;;;;14.00;10.65;;;10.50;99.90;;;;;;5069484;28;20033;-61
2022/11/13 10:35:46;;;;;;;16.58;11.85;;;10.60;99.90;;;;;;5070505;28;20119;-61
2022/11/13 10:38:26;;;;;;;15.70;10.73;;;10.70;99.90;;;;;;5066056;28;20055;-61
2022/11/13 10:41:02;;;;;;;16.08;11.13;;;10.80;99.90;;;;;;5059903;28;20075;-61
2022/11/13 10:43:28;;;;;;;15.88;12.45;;;10.80;99.90;;;;;;5059881;28;20041;-62
2022/11/13 10:45:56;;;;;;;19.50;14.68;;;10.90;99.90;;;;;;5059795;28;20032;-61
2022/11/13 10:48:25;;;;;;;14.95;11.48;;;10.90;99.90;;;;;;5061682;28;20048;-61
2022/11/13 10:50:58;;;;;;;13.13;10.80;;;11.00;99.90;;;;;;5060020;28;20127;-61
2022/11/13 10:53:26;;;;;;;13.15;10.70;;;11.00;99.90;;;;;;5060142;28;20048;-61
2022/11/13 10:55:55;;;;;;;13.95;10.43;;;11.00;99.90;;;;;;5059828;28;20033;-62
2022/11/13 10:58:21;;;;;;;14.27;10.07;;;11.10;99.90;;;;;;5060162;28;20045;-61
2022/11/13 11:00:48;;;;;;;15.25;11.38;;;11.10;99.90;;;;;;5058834;28;20116;-61
2022/11/13 11:03:19;;;;;;;13.68;10.75;;;11.20;99.90;;;;;;5059954;28;20392;-62
2022/11/13 11:05:53;;;;;;;15.43;10.50;;;11.20;99.90;;;;;;5059347;28;20440;-62
2022/11/13 11:08:23;;;;;;;13.43;10.40;;;11.20;99.90;;;;;;5059538;28;20482;-61
2022/11/13 11:13:47;;;;;;;15.57;10.52;;;11.20;99.90;;;;;;5070433;28;20072;-62
2022/11/13 11:16:22;;;;;;;14.43;11.38;;;11.20;99.90;;;;;;5057471;28;20029;-61
2022/11/13 11:18:55;;;;;;;15.90;11.00;;;11.20;99.90;;;;;;5065521;28;20115;-61
2022/11/13 11:21:26;;;;;;;14.70;10.68;;;11.30;99.90;;;;;;5070319;28;20053;-61
2022/11/13 11:24:15;;;;;;;14.73;10.30;;;11.30;99.90;;;;;;5069947;28;20117;-62
2022/11/13 11:27:07;;;;;;;15.18;10.88;;;11.20;99.90;;;;;;5070730;28;20037;-61
2022/11/13 11:29:43;;;;;;;15.10;10.63;;;11.20;99.90;;;;;;5065063;28;20048;-61
2022/11/13 11:32:31;;;;;;;14.50;10.73;;;11.20;99.90;;;;;;5069512;28;20044;-61
2022/11/13 11:35:12;;;;;;;13.70;9.98;;;11.20;99.90;;;;;;5070635;28;20082;-61
2022/11/13 11:38:08;;;;;;;16.02;11.45;;;11.00;99.90;;;;;;5069009;28;20055;-62
2022/11/13 11:40:43;;;;;;;14.52;10.60;;;11.00;99.90;;;;;;5052867;28;20131;-61
2022/11/13 11:43:14;;;;;;;15.50;11.45;;;10.90;99.90;;;;;;5070766;28;20040;-61
2022/11/13 11:45:42;;;;;;;14.88;10.90;;;10.90;99.90;;;;;;5070518;28;20033;-60
2022/11/13 11:48:16;;;;;;;16.58;10.55;;;10.90;99.90;;;;;;5072013;28;20040;-61
2022/11/13 11:51:05;;;;;;;14.10;10.35;;;10.80;99.90;;;;;;5074426;28;20121;-61
2022/11/13 11:53:49;;;;;;;15.30;10.32;;;10.80;99.90;;;;;;5074273;28;20080;-61
2022/11/13 11:56:22;;;;;;;13.32;10.23;;;10.90;99.90;;;;;;5071089;28;20040;-62
2022/11/13 11:59:13;;;;;;;13.75;10.38;;;10.90;99.90;;;;;;5056895;28;20488;-61
2022/11/13 12:02:00;;;;;;;15.15;10.85;;;10.90;99.90;;;;;;5065028;28;20670;-62
2022/11/13 12:04:52;;;;;;;14.40;10.35;;;10.90;99.90;;;;;;5069867;28;20254;-61
2022/11/13 12:07:35;;;;;;;15.10;10.77;;;11.00;99.90;;;;;;5073406;28;20090;-61
2022/11/13 12:10:16;;;;;;;17.02;11.35;;;11.10;99.90;;;;;;5073119;28;20430;-61
2022/11/13 12:12:52;;;;;;;13.63;10.70;;;11.20;99.90;;;;;;5070635;28;20048;-61
2022/11/13 12:15:39;;;;;;;14.43;10.23;;;11.30;99.90;;;;;;5059266;28;20041;-61
2022/11/13 12:18:11;;;;;;;14.55;9.45;;;11.30;99.90;;;;;;5057843;28;20497;-61
2022/11/13 12:21:02;;;;;;;13.70;10.43;;;11.40;99.90;;;;;;5057821;28;20107;-62
2022/11/13 12:23:46;;;;;;;15.90;11.00;;;11.40;99.90;;;;;;5070905;28;20044;-61
2022/11/13 12:26:27;;;;;;;14.40;10.05;;;11.30;99.90;;;;;;5062565;28;20052;-61
2022/11/13 12:29:12;;;;;;;15.63;9.98;;;11.40;99.90;;;;;;5063340;28;20481;-61
2022/11/13 12:31:58;;;;;;;13.55;10.38;;;11.40;99.90;;;;;;5062483;28;20418;-61
2022/11/13 12:34:24;;;;;;;16.20;10.70;;;11.30;99.90;;;;;;5064583;28;20102;-61
2022/11/13 12:36:51;;;;;;;13.75;10.10;;;11.30;99.90;;;;;;5064476;28;20036;-62
2022/11/13 12:39:38;;;;;;;15.88;10.75;;;11.30;99.90;;;;;;5063166;28;20059;-61
2022/11/13 12:42:25;;;;;;;14.18;10.95;;;11.30;99.90;;;;;;5065087;28;20032;-61
2022/11/13 12:45:04;;;;;;;17.23;10.80;;;11.30;99.90;;;;;;5064887;28;20041;-61
2022/11/13 12:47:33;;;;;;;15.20;10.70;;;11.30;99.90;;;;;;5059604;28;20072;-61
2022/11/13 12:50:06;;;;;;;14.45;10.13;;;11.30;99.90;;;;;;5036884;28;20053;-61
2022/11/13 12:52:31;;;;;;;;;;;11.40;99.90;;;;;;5054762;28;20106;-62